Time;durP1;ratioP1;P1;durP2;ratioP2;P2;SDS_P1;SDS_P2;PMS_P1;PMS_P2;Temp;Humidity;BMP_temperature;BMP_pressure;BME280_temperature;BME280_humidity;BME280_pressure;Samples;Min_cycle;Max_cycle;Signal;HPM_P1;HPM_P2
2023/03/02 00:02:00;;;;;;;36.25;23.88;;;2.70;99.90;;;;;;5110792;28;20036;-49
2023/03/02 00:04:34;;;;;;;50.78;30.95;;;2.60;99.90;;;;;;5102225;28;20485;-48
2023/03/02 00:07:04;;;;;;;34.40;20.30;;;2.60;99.90;;;;;;5101447;28;20128;-52
2023/03/02 00:09:31;;;;;;;45.10;27.52;;;2.60;99.90;;;;;;5091511;28;20127;-51
2023/03/02 00:11:57;;;;;;;32.63;21.38;;;2.60;99.90;;;;;;5110799;28;20408;-48
2023/03/02 00:14:22;;;;;;;36.95;23.15;;;2.60;99.90;;;;;;5112064;28;20104;-49
2023/03/02 00:16:48;;;;;;;40.95;24.83;;;2.60;99.90;;;;;;5112363;28;20040;-50
2023/03/02 00:19:14;;;;;;;46.25;26.23;;;2.60;99.90;;;;;;5116071;28;20400;-49
2023/03/02 00:21:40;;;;;;;51.05;33.55;;;2.60;99.90;;;;;;5116010;28;20085;-52
2023/03/02 00:24:06;;;;;;;32.35;20.15;;;2.60;99.90;;;;;;5096724;28;20131;-49
2023/03/02 00:26:36;;;;;;;43.30;25.88;;;2.60;99.90;;;;;;5098329;28;20054;-48
2023/03/02 00:29:02;;;;;;;48.55;29.80;;;2.50;99.90;;;;;;5107733;28;20047;-48
2023/03/02 00:31:28;;;;;;;43.40;27.60;;;2.50;99.90;;;;;;5105588;28;20433;-50
2023/03/02 00:33:53;;;;;;;33.38;20.17;;;2.50;99.90;;;;;;5108869;28;20108;-48
2023/03/02 00:36:20;;;;;;;49.08;30.73;;;2.50;99.90;;;;;;5108818;28;20043;-49
2023/03/02 00:38:47;;;;;;;39.47;23.23;;;2.50;99.90;;;;;;5109934;28;20123;-48
2023/03/02 00:41:14;;;;;;;42.85;27.33;;;2.40;99.90;;;;;;5109759;28;20040;-48
2023/03/02 00:43:41;;;;;;;49.57;28.20;;;2.50;99.90;;;;;;5109793;28;20067;-47
2023/03/02 00:46:11;;;;;;;43.20;26.15;;;2.50;99.90;;;;;;5109295;28;20390;-48
2023/03/02 00:48:37;;;;;;;51.25;29.00;;;2.40;99.90;;;;;;5109362;28;20104;-49
2023/03/02 00:51:04;;;;;;;49.17;30.35;;;2.40;99.90;;;;;;5109840;28;20143;-48
2023/03/02 00:53:30;;;;;;;46.45;28.45;;;2.40;99.90;;;;;;5109092;28;20054;-48
2023/03/02 00:55:56;;;;;;;37.05;21.10;;;2.40;99.90;;;;;;5107244;28;20032;-51
2023/03/02 00:58:21;;;;;;;54.78;32.95;;;2.40;99.90;;;;;;5114734;28;20393;-52
2023/03/02 01:00:47;;;;;;;42.35;25.52;;;2.40;99.90;;;;;;5115317;28;20035;-49
2023/03/02 01:03:13;;;;;;;55.72;32.08;;;2.40;99.90;;;;;;5115187;28;20121;-48
2023/03/02 01:05:39;;;;;;;50.90;28.40;;;2.40;99.90;;;;;;5114394;28;20066;-48
2023/03/02 01:08:05;;;;;;;56.38;30.92;;;2.40;99.90;;;;;;5113515;28;20031;-51
2023/03/02 01:10:33;;;;;;;56.15;34.67;;;2.40;99.90;;;;;;5105586;28;20100;-51
2023/03/02 01:12:59;;;;;;;53.80;33.30;;;2.40;99.90;;;;;;5107726;28;20401;-49
2023/03/02 01:15:24;;;;;;;55.38;34.38;;;2.40;99.90;;;;;;5110346;28;20036;-51
2023/03/02 01:17:50;;;;;;;44.05;25.63;;;2.30;99.90;;;;;;5113550;28;20111;-48
2023/03/02 01:20:16;;;;;;;49.97;28.48;;;2.30;99.90;;;;;;5113253;28;20042;-48
2023/03/02 01:22:43;;;;;;;48.65;27.52;;;2.30;99.90;;;;;;5103391;28;20036;-48
2023/03/02 01:25:10;;;;;;;47.05;25.08;;;2.30;99.90;;;;;;5111532;28;20040;-48
2023/03/02 01:27:35;;;;;;;58.42;34.80;;;2.30;99.90;;;;;;5108708;28;20480;-48
2023/03/02 01:30:01;;;;;;;54.60;32.38;;;2.30;99.90;;;;;;5106594;28;20119;-48
2023/03/02 01:32:27;;;;;;;58.72;34.35;;;2.30;99.90;;;;;;5105773;28;20044;-48
2023/03/02 01:34:52;;;;;;;48.50;27.25;;;2.30;99.90;;;;;;5104922;28;20039;-48
2023/03/02 01:37:19;;;;;;;60.90;35.22;;;2.30;99.90;;;;;;5103815;28;20046;-48
2023/03/02 01:39:45;;;;;;;51.72;29.42;;;2.40;99.90;;;;;;5105015;28;20039;-48
2023/03/02 01:42:11;;;;;;;47.85;27.30;;;2.30;99.90;;;;;;5107213;28;20434;-48
2023/03/02 01:44:50;;;;;;;54.25;32.30;;;2.20;99.90;;;;;;5110231;28;20044;-52
2023/03/02 01:47:37;;;;;;;55.13;34.05;;;2.20;99.90;;;;;;5107530;28;20099;-51
2023/03/02 01:50:18;;;;;;;50.90;29.87;;;2.20;99.90;;;;;;5108186;28;20071;-49
2023/03/02 01:52:43;;;;;;;53.17;32.00;;;2.30;99.90;;;;;;5107217;28;20100;-49
2023/03/02 01:55:12;;;;;;;51.10;30.13;;;2.20;99.90;;;;;;5110136;28;20354;-50
2023/03/02 01:57:43;;;;;;;49.72;28.60;;;2.20;99.90;;;;;;5108490;28;20488;-48
2023/03/02 02:00:13;;;;;;;51.67;30.20;;;2.20;99.90;;;;;;5108252;28;20051;-49
2023/03/02 02:02:40;;;;;;;43.28;25.38;;;2.10;99.90;;;;;;5107412;28;20032;-49
2023/03/02 02:05:14;;;;;;;49.85;30.35;;;2.00;99.90;;;;;;5109260;28;20100;-48
2023/03/02 02:07:40;;;;;;;43.63;24.50;;;2.00;99.90;;;;;;5107339;28;20122;-48
2023/03/02 02:10:07;;;;;;;44.80;24.70;;;2.00;99.90;;;;;;5106036;28;20051;-49
2023/03/02 02:12:33;;;;;;;42.58;24.23;;;1.90;99.90;;;;;;5106186;28;20032;-49
2023/03/02 02:15:00;;;;;;;41.90;24.50;;;1.90;99.90;;;;;;5103552;28;20035;-49
2023/03/02 02:17:28;;;;;;;45.97;26.65;;;1.90;99.90;;;;;;5107211;28;20047;-49
2023/03/02 02:20:22;;;;;;;36.30;18.20;;;1.90;99.90;;;;;;5112059;28;20043;-47
2023/03/02 02:23:18;;;;;;;46.08;26.00;;;1.80;99.90;;;;;;5111859;28;20048;-49
2023/03/02 02:25:52;;;;;;;39.90;20.75;;;1.80;99.90;;;;;;5103740;28;20036;-48
2023/03/02 02:28:43;;;;;;;50.97;28.80;;;1.80;99.90;;;;;;5107144;28;20032;-48
2023/03/02 02:31:25;;;;;;;49.25;30.05;;;1.80;99.90;;;;;;5026971;28;20111;-48
2023/03/02 02:33:57;;;;;;;46.63;26.48;;;1.80;99.90;;;;;;5010085;28;20045;-49
2023/03/02 02:36:31;;;;;;;49.20;27.58;;;1.80;99.90;;;;;;5011105;28;20057;-50
2023/03/02 02:39:01;;;;;;;33.08;19.58;;;1.80;99.90;;;;;;5010970;28;20381;-49
2023/03/02 02:41:32;;;;;;;34.47;19.08;;;1.80;99.90;;;;;;5009823;28;20070;-48
2023/03/02 02:43:57;;;;;;;43.22;24.35;;;1.80;99.90;;;;;;4995542;28;20049;-49
2023/03/02 02:46:24;;;;;;;48.13;26.33;;;1.80;99.90;;;;;;5013576;28;20088;-50
2023/03/02 02:48:50;;;;;;;45.42;23.75;;;1.80;99.90;;;;;;5012375;28;20559;-49
2023/03/02 02:51:22;;;;;;;36.25;19.92;;;1.80;99.90;;;;;;4993196;28;20477;-50
2023/03/02 02:54:00;;;;;;;47.95;27.73;;;1.80;99.90;;;;;;5005236;28;20297;-48
2023/03/02 02:56:37;;;;;;;46.78;27.95;;;1.80;99.90;;;;;;5006004;28;20168;-49
2023/03/02 02:59:15;;;;;;;47.72;27.23;;;1.80;99.90;;;;;;5004420;28;20046;-49
2023/03/02 03:01:41;;;;;;;50.95;28.65;;;1.70;99.90;;;;;;5006643;28;20058;-48
2023/03/02 03:04:13;;;;;;;52.88;30.13;;;1.70;99.90;;;;;;5010216;28;20654;-48
2023/03/02 03:06:55;;;;;;;49.42;27.70;;;1.70;99.90;;;;;;5007123;28;20045;-50
2023/03/02 03:09:21;;;;;;;50.42;28.10;;;1.70;99.90;;;;;;5101525;28;20130;-48
2023/03/02 03:11:52;;;;;;;43.75;24.27;;;1.70;99.90;;;;;;5100149;28;20036;-49
2023/03/02 03:14:21;;;;;;;48.13;26.67;;;1.70;99.90;;;;;;5101579;28;20036;-49
2023/03/02 03:16:48;;;;;;;43.88;25.02;;;1.70;99.90;;;;;;5099234;28;20047;-53
2023/03/02 03:19:29;;;;;;;46.38;26.60;;;1.60;99.90;;;;;;5101901;28;20085;-48
2023/03/02 03:21:57;;;;;;;44.58;24.08;;;1.60;99.90;;;;;;5106205;28;20039;-48
2023/03/02 03:24:25;;;;;;;43.45;23.73;;;1.60;99.90;;;;;;5103631;28;20118;-50
2023/03/02 03:26:53;;;;;;;48.20;26.80;;;1.60;99.90;;;;;;5106245;28;20695;-49
2023/03/02 03:29:19;;;;;;;39.22;20.27;;;1.60;99.90;;;;;;5102710;28;20052;-51
2023/03/02 03:31:44;;;;;;;40.95;22.58;;;1.50;99.90;;;;;;5105332;28;20031;-49
2023/03/02 03:34:10;;;;;;;44.22;23.27;;;1.50;99.90;;;;;;5105251;28;20039;-49
2023/03/02 03:36:36;;;;;;;48.58;26.02;;;1.50;99.90;;;;;;5107220;28;20483;-50
2023/03/02 03:39:04;;;;;;;42.88;21.98;;;1.40;99.90;;;;;;5105350;28;20123;-51
2023/03/02 03:41:30;;;;;;;49.42;24.90;;;1.40;99.90;;;;;;5106214;28;20040;-49
2023/03/02 03:43:55;;;;;;;43.63;23.20;;;1.40;99.90;;;;;;5104969;28;20032;-49
2023/03/02 03:46:21;;;;;;;48.08;26.05;;;1.40;99.90;;;;;;5108416;28;20091;-53
2023/03/02 03:48:47;;;;;;;52.67;27.67;;;1.40;99.90;;;;;;5110849;28;20043;-54
2023/03/02 03:51:12;;;;;;;48.67;26.15;;;1.50;99.90;;;;;;5105088;28;20119;-49
2023/03/02 03:53:38;;;;;;;48.67;26.77;;;1.50;99.90;;;;;;5110789;28;20040;-54
2023/03/02 03:56:04;;;;;;;48.47;26.40;;;1.40;99.90;;;;;;5108612;28;20134;-53
2023/03/02 03:58:30;;;;;;;51.65;27.55;;;1.50;99.90;;;;;;5106722;28;20042;-51
2023/03/02 04:00:56;;;;;;;49.15;23.40;;;1.50;99.90;;;;;;5109040;28;20047;-52
2023/03/02 04:03:22;;;;;;;46.22;24.02;;;1.40;99.90;;;;;;5107770;28;20126;-49
2023/03/02 04:05:48;;;;;;;46.22;22.92;;;1.40;99.90;;;;;;5103443;28;20115;-53
2023/03/02 04:08:14;;;;;;;49.42;23.15;;;1.40;99.90;;;;;;5109981;28;20088;-51
2023/03/02 04:10:40;;;;;;;45.45;19.67;;;1.40;99.90;;;;;;5107119;28;20051;-51
2023/03/02 04:13:06;;;;;;;39.83;22.83;;;1.40;99.90;;;;;;5108132;28;20059;-49
2023/03/02 04:15:31;;;;;;;50.67;24.25;;;1.40;99.90;;;;;;5108217;28;20036;-49
2023/03/02 04:17:57;;;;;;;55.50;28.10;;;1.40;99.90;;;;;;5109379;28;20409;-49
2023/03/02 04:20:24;;;;;;;52.78;23.77;;;1.40;99.90;;;;;;5088356;28;20101;-49
2023/03/02 04:22:51;;;;;;;62.00;30.23;;;1.30;99.90;;;;;;5108272;28;20036;-48
2023/03/02 04:25:20;;;;;;;52.65;23.60;;;1.40;99.90;;;;;;5106697;28;20043;-49
2023/03/02 04:27:48;;;;;;;64.18;27.95;;;1.40;99.90;;;;;;5095569;28;20040;-49
2023/03/02 04:30:15;;;;;;;60.83;27.23;;;1.40;99.90;;;;;;5106692;28;20505;-52
2023/03/02 04:32:42;;;;;;;50.17;26.40;;;1.40;99.90;;;;;;5115637;28;20040;-50
2023/03/02 04:35:12;;;;;;;55.30;25.17;;;1.40;99.90;;;;;;5113096;28;20084;-51
2023/03/02 04:37:38;;;;;;;67.85;30.20;;;1.40;99.90;;;;;;5114961;28;20289;-50
2023/03/02 04:40:05;;;;;;;66.82;27.25;;;1.40;99.90;;;;;;5103966;28;20577;-51
2023/03/02 04:42:31;;;;;;;65.40;30.48;;;1.40;99.90;;;;;;5115379;28;20036;-50
2023/03/02 04:44:57;;;;;;;49.05;25.45;;;1.40;99.90;;;;;;5115245;28;20451;-48
2023/03/02 04:47:22;;;;;;;44.78;21.33;;;1.50;99.90;;;;;;5114332;28;20035;-50
2023/03/02 04:49:53;;;;;;;53.67;22.67;;;1.40;99.90;;;;;;5113792;28;20040;-50
2023/03/02 04:52:19;;;;;;;70.95;30.17;;;1.40;99.90;;;;;;5090836;28;20058;-50
2023/03/02 04:54:45;;;;;;;59.22;26.63;;;1.50;99.90;;;;;;5109604;28;20050;-48
2023/03/02 04:57:10;;;;;;;59.90;25.90;;;1.50;99.90;;;;;;5110014;28;20035;-50
2023/03/02 04:59:36;;;;;;;43.40;21.40;;;1.50;99.90;;;;;;5105879;28;20035;-48
2023/03/02 05:02:02;;;;;;;55.55;24.77;;;1.40;99.90;;;;;;5110483;28;20526;-49
2023/03/02 05:04:28;;;;;;;66.22;28.25;;;1.40;99.90;;;;;;5109011;28;20124;-49
2023/03/02 05:06:54;;;;;;;56.28;25.02;;;1.40;99.90;;;;;;5108440;28;20478;-51
2023/03/02 05:09:25;;;;;;;43.13;18.70;;;1.30;99.90;;;;;;5109353;28;20039;-50
2023/03/02 05:11:55;;;;;;;50.58;23.30;;;1.30;99.90;;;;;;5109599;28;20524;-49
2023/03/02 05:14:21;;;;;;;52.22;23.13;;;1.30;99.90;;;;;;5070023;28;20055;-50
2023/03/02 05:16:47;;;;;;;63.15;26.95;;;1.30;99.90;;;;;;5104519;28;20038;-48
2023/03/02 05:19:12;;;;;;;58.25;24.20;;;1.30;99.90;;;;;;5103466;28;20452;-52
2023/03/02 05:21:39;;;;;;;59.10;25.67;;;1.30;99.90;;;;;;5101932;28;20113;-49
2023/03/02 05:24:05;;;;;;;55.63;21.08;;;1.20;99.90;;;;;;5104235;28;20041;-49
2023/03/02 05:26:30;;;;;;;59.22;25.23;;;1.20;99.90;;;;;;5103575;28;20051;-50
2023/03/02 05:28:56;;;;;;;59.38;25.50;;;1.20;99.90;;;;;;5107608;28;20396;-48
2023/03/02 05:31:39;;;;;;;57.10;25.83;;;1.20;99.90;;;;;;5108863;28;20040;-49
2023/03/02 05:34:07;;;;;;;58.80;27.90;;;1.20;99.90;;;;;;5103743;28;20123;-48
2023/03/02 05:36:33;;;;;;;48.25;22.63;;;1.20;99.90;;;;;;5086798;28;20046;-49
2023/03/02 05:38:59;;;;;;;57.95;25.05;;;1.20;99.90;;;;;;5107081;28;20035;-49
2023/03/02 05:41:25;;;;;;;58.60;22.13;;;1.10;99.90;;;;;;5107778;28;20130;-51
2023/03/02 05:43:51;;;;;;;59.20;26.67;;;1.20;99.90;;;;;;5108672;28;20036;-51
2023/03/02 05:46:17;;;;;;;65.43;29.77;;;1.20;99.90;;;;;;5104498;28;20088;-49
2023/03/02 05:48:42;;;;;;;62.38;24.23;;;1.10;99.90;;;;;;5105220;28;20466;-49
2023/03/02 05:51:08;;;;;;;65.90;27.42;;;1.20;99.90;;;;;;5107919;28;20156;-50
2023/03/02 05:53:34;;;;;;;48.88;20.98;;;1.20;99.90;;;;;;5104165;28;20040;-50
2023/03/02 05:55:59;;;;;;;46.97;20.50;;;1.20;99.90;;;;;;5106341;28;20534;-51
2023/03/02 05:58:25;;;;;;;49.33;22.60;;;1.10;99.90;;;;;;5107180;28;20123;-50
2023/03/02 06:00:51;;;;;;;58.67;27.42;;;1.20;99.90;;;;;;5102010;28;20040;-48
2023/03/02 06:03:17;;;;;;;51.13;22.13;;;1.10;99.90;;;;;;5105767;28;20062;-51
2023/03/02 06:05:43;;;;;;;61.53;27.52;;;1.10;99.90;;;;;;5084802;28;20036;-48
2023/03/02 06:08:09;;;;;;;52.10;26.50;;;1.10;99.90;;;;;;5100244;28;20446;-49
2023/03/02 06:10:35;;;;;;;53.13;23.15;;;1.10;99.90;;;;;;5098925;28;20040;-50
2023/03/02 06:13:00;;;;;;;77.85;31.90;;;1.10;99.90;;;;;;5100814;28;20081;-50
2023/03/02 06:15:29;;;;;;;62.83;27.58;;;1.20;99.90;;;;;;5079370;28;20055;-49
2023/03/02 06:17:56;;;;;;;75.60;31.05;;;1.10;99.90;;;;;;5097778;28;20036;-50
2023/03/02 06:20:22;;;;;;;71.60;30.33;;;1.20;99.90;;;;;;5101116;28;20458;-50
2023/03/02 06:22:48;;;;;;;65.10;28.83;;;1.20;99.90;;;;;;5103682;28;20462;-50
2023/03/02 06:25:18;;;;;;;94.05;33.42;;;1.20;99.90;;;;;;5102293;28;20050;-49
2023/03/02 06:27:44;;;;;;;105.60;33.25;;;1.30;99.90;;;;;;5098458;28;20071;-50
2023/03/02 06:30:14;;;;;;;94.10;35.70;;;1.20;99.90;;;;;;5103004;28;20130;-49
2023/03/02 06:32:41;;;;;;;78.50;31.02;;;1.20;99.90;;;;;;5104915;28;20389;-50
2023/03/02 06:35:07;;;;;;;71.85;28.23;;;1.30;99.90;;;;;;5108439;28;20044;-51
2023/03/02 06:37:33;;;;;;;53.70;25.83;;;1.20;99.90;;;;;;5109851;28;20028;-54
2023/03/02 06:39:59;;;;;;;52.90;29.08;;;1.10;99.90;;;;;;5102007;28;20494;-49
2023/03/02 06:42:26;;;;;;;59.63;28.00;;;1.20;99.90;;;;;;5102358;28;20067;-49
2023/03/02 06:44:53;;;;;;;59.95;29.63;;;1.20;99.90;;;;;;5101045;28;20067;-50
2023/03/02 06:47:20;;;;;;;61.92;27.15;;;1.20;99.90;;;;;;5087771;28;20050;-50
2023/03/02 06:49:46;;;;;;;59.92;23.83;;;1.10;99.90;;;;;;5085557;28;20111;-49
2023/03/02 06:52:13;;;;;;;71.53;28.95;;;1.20;99.90;;;;;;5105595;28;20142;-51
2023/03/02 06:54:39;;;;;;;72.97;29.45;;;1.20;99.90;;;;;;5101165;28;20453;-51
2023/03/02 06:57:05;;;;;;;76.32;30.35;;;1.20;99.90;;;;;;5103465;28;20118;-51
2023/03/02 06:59:31;;;;;;;67.18;25.25;;;1.20;99.90;;;;;;5104782;28;20036;-51
2023/03/02 07:01:57;;;;;;;36.80;15.90;;;1.20;99.90;;;;;;5100836;28;20067;-51
2023/03/02 07:04:23;;;;;;;72.05;25.27;;;1.10;99.90;;;;;;5103868;28;20151;-50
2023/03/02 07:06:48;;;;;;;84.07;29.77;;;1.10;99.90;;;;;;5104790;28;20035;-49
2023/03/02 07:09:14;;;;;;;61.17;25.15;;;1.10;99.90;;;;;;5104146;28;20371;-48
2023/03/02 07:11:40;;;;;;;51.72;22.10;;;1.10;99.90;;;;;;5082932;28;20040;-49
2023/03/02 07:14:06;;;;;;;37.15;17.65;;;1.20;99.90;;;;;;5103485;28;20504;-49
2023/03/02 07:16:33;;;;;;;78.50;29.40;;;1.00;99.90;;;;;;5103665;28;20031;-52
2023/03/02 07:18:59;;;;;;;68.53;29.08;;;1.10;99.90;;;;;;5104798;28;20101;-50
2023/03/02 07:21:24;;;;;;;51.60;22.38;;;1.00;99.90;;;;;;5100057;28;20048;-52
2023/03/02 07:23:50;;;;;;;47.42;20.67;;;1.10;99.90;;;;;;5101593;28;20492;-51
2023/03/02 07:26:16;;;;;;;70.85;28.92;;;1.10;99.90;;;;;;5107262;28;20032;-50
2023/03/02 07:28:43;;;;;;;58.78;27.17;;;1.10;99.90;;;;;;5107028;28;20036;-49
2023/03/02 07:31:09;;;;;;;52.65;23.73;;;1.20;99.90;;;;;;5108564;28;20045;-51
2023/03/02 07:33:36;;;;;;;58.65;27.42;;;1.20;99.90;;;;;;5108985;28;20043;-51
2023/03/02 07:36:02;;;;;;;58.85;28.45;;;1.20;99.90;;;;;;5103497;28;20079;-49
2023/03/02 07:38:27;;;;;;;56.65;27.95;;;1.20;99.90;;;;;;5109179;28;20067;-49
2023/03/02 07:40:53;;;;;;;53.95;24.95;;;1.30;99.90;;;;;;5108498;28;20044;-51
2023/03/02 07:43:19;;;;;;;58.13;28.73;;;1.30;99.90;;;;;;5108526;28;20047;-49
2023/03/02 07:45:45;;;;;;;55.45;26.20;;;1.40;99.90;;;;;;5103997;28;20404;-51
2023/03/02 07:48:11;;;;;;;71.75;26.23;;;1.40;99.90;;;;;;5088984;28;20048;-49
2023/03/02 07:50:36;;;;;;;58.67;20.23;;;1.30;99.90;;;;;;5106309;28;20032;-51
2023/03/02 07:53:02;;;;;;;50.13;22.83;;;1.30;99.90;;;;;;5104690;28;20574;-49
2023/03/02 07:55:28;;;;;;;69.45;27.55;;;1.30;99.90;;;;;;5107657;28;20063;-50
2023/03/02 07:57:54;;;;;;;46.17;21.92;;;1.30;99.90;;;;;;5110733;28;20061;-53
2023/03/02 08:00:20;;;;;;;59.33;25.30;;;1.20;99.90;;;;;;5108020;28;20040;-50
2023/03/02 08:02:46;;;;;;;52.15;25.17;;;1.30;99.90;;;;;;5105716;28;20036;-50
2023/03/02 08:05:12;;;;;;;49.03;25.75;;;1.40;99.90;;;;;;5107764;28;20086;-50
2023/03/02 08:07:39;;;;;;;64.68;28.70;;;1.40;99.90;;;;;;5106656;28;20433;-51
2023/03/02 08:10:05;;;;;;;59.13;30.00;;;1.40;99.90;;;;;;5107723;28;20055;-49
2023/03/02 08:12:31;;;;;;;55.33;26.98;;;1.50;99.90;;;;;;5105607;28;20051;-49
2023/03/02 08:14:56;;;;;;;58.25;23.23;;;1.40;99.90;;;;;;5105769;28;20043;-50
2023/03/02 08:17:22;;;;;;;59.38;25.67;;;1.40;99.90;;;;;;5108286;28;20473;-50
2023/03/02 08:19:48;;;;;;;56.88;24.63;;;1.50;99.90;;;;;;5109272;28;20454;-49
2023/03/02 08:22:14;;;;;;;45.60;20.88;;;1.50;99.90;;;;;;5105084;28;20039;-49
2023/03/02 08:24:40;;;;;;;58.08;25.77;;;1.60;99.90;;;;;;5106299;28;20036;-52
2023/03/02 08:27:07;;;;;;;58.35;27.55;;;1.60;99.90;;;;;;5106364;28;20078;-51
2023/03/02 08:29:33;;;;;;;46.53;21.50;;;1.70;99.90;;;;;;5083260;28;20043;-49
2023/03/02 08:31:59;;;;;;;45.88;24.85;;;1.60;99.90;;;;;;5105066;28;20036;-51
2023/03/02 08:34:25;;;;;;;60.47;27.38;;;1.70;99.90;;;;;;5106909;28;20047;-50
2023/03/02 08:36:52;;;;;;;50.55;27.80;;;1.70;99.90;;;;;;5103729;28;20078;-51
2023/03/02 08:39:17;;;;;;;54.35;26.13;;;1.80;99.90;;;;;;5107741;28;20097;-49
2023/03/02 08:41:43;;;;;;;42.30;23.10;;;1.70;99.90;;;;;;5103269;28;20047;-48
2023/03/02 08:44:09;;;;;;;44.60;26.70;;;1.70;99.90;;;;;;5109150;28;20127;-49
2023/03/02 08:46:34;;;;;;;27.77;15.50;;;1.80;99.90;;;;;;5107146;28;20125;-50
2023/03/02 08:49:00;;;;;;;45.00;22.95;;;1.70;99.90;;;;;;5105680;28;20076;-49
2023/03/02 08:51:26;;;;;;;36.78;18.98;;;1.80;99.90;;;;;;5106473;28;20054;-49
2023/03/02 08:53:54;;;;;;;41.20;24.45;;;1.90;99.90;;;;;;5100882;28;20043;-50
2023/03/02 08:56:28;;;;;;;40.38;23.52;;;1.90;99.90;;;;;;5103279;28;20048;-50
2023/03/02 08:58:58;;;;;;;38.58;24.95;;;1.90;99.90;;;;;;5103464;28;20036;-54
2023/03/02 09:01:27;;;;;;;36.85;23.13;;;2.00;99.90;;;;;;5098249;28;20104;-50
2023/03/02 09:03:53;;;;;;;44.60;25.95;;;2.10;99.90;;;;;;5104411;28;20517;-51
2023/03/02 09:06:18;;;;;;;40.50;21.50;;;2.10;99.90;;;;;;5087243;28;20040;-48
2023/03/02 09:08:44;;;;;;;39.00;23.67;;;2.10;99.90;;;;;;5104725;28;20065;-49
2023/03/02 09:11:10;;;;;;;38.17;23.15;;;2.20;99.90;;;;;;5101029;28;21151;-52
2023/03/02 09:13:36;;;;;;;32.08;21.48;;;2.20;99.90;;;;;;5099097;28;20135;-47
2023/03/02 09:16:01;;;;;;;29.75;18.45;;;2.20;99.90;;;;;;5105970;28;20064;-48
2023/03/02 09:18:28;;;;;;;35.63;22.52;;;2.20;99.90;;;;;;5100243;28;20044;-47
2023/03/02 09:20:55;;;;;;;31.17;17.25;;;2.10;99.90;;;;;;5099930;28;20047;-47
2023/03/02 09:23:21;;;;;;;31.88;20.15;;;2.10;99.90;;;;;;5102114;28;20059;-47
2023/03/02 09:25:47;;;;;;;31.95;21.55;;;2.20;99.90;;;;;;5102060;28;20040;-47
2023/03/02 09:28:14;;;;;;;19.23;11.23;;;2.10;99.90;;;;;;5105191;28;20473;-48
2023/03/02 09:30:40;;;;;;;29.15;18.95;;;2.10;99.90;;;;;;5102480;28;20047;-51
2023/03/02 09:33:06;;;;;;;19.80;11.65;;;2.10;99.90;;;;;;5104603;28;20035;-49
2023/03/02 09:35:31;;;;;;;28.23;20.13;;;2.20;99.90;;;;;;5108262;28;20043;-50
2023/03/02 09:37:57;;;;;;;30.63;20.17;;;2.30;99.90;;;;;;5108826;28;20035;-51
2023/03/02 09:40:25;;;;;;;31.75;19.67;;;2.40;99.90;;;;;;5107719;28;20063;-50
2023/03/02 09:42:54;;;;;;;;;;;2.40;99.90;;;;;;5105878;28;20036;-49
2023/03/02 09:45:26;;;;;;;24.02;14.82;;;2.50;99.90;;;;;;5086268;28;20285;-48
2023/03/02 09:48:00;;;;;;;30.73;20.73;;;2.50;99.90;;;;;;5097853;28;20044;-49
2023/03/02 09:50:31;;;;;;;24.05;16.83;;;2.60;99.90;;;;;;5077821;28;20044;-48
2023/03/02 09:53:31;;;;;;;28.98;19.58;;;2.60;99.90;;;;;;5096778;28;20039;-48
2023/03/02 09:56:01;;;;;;;30.67;20.45;;;2.70;99.90;;;;;;5102310;28;20504;-50
2023/03/02 09:58:38;;;;;;;28.40;18.35;;;2.70;99.90;;;;;;5100197;28;20397;-49
2023/03/02 10:01:14;;;;;;;26.80;18.07;;;2.60;99.90;;;;;;5096809;28;20043;-51
2023/03/02 10:04:13;;;;;;;27.45;19.42;;;2.60;99.90;;;;;;5100286;28;20126;-50
2023/03/02 10:06:38;;;;;;;27.88;19.83;;;2.70;99.90;;;;;;5101091;28;20878;-51
2023/03/02 10:09:04;;;;;;;27.00;20.42;;;3.00;99.90;;;;;;5096106;28;20031;-49
2023/03/02 10:11:46;;;;;;;27.27;20.17;;;3.10;99.90;;;;;;5102208;28;20473;-50
2023/03/02 10:14:21;;;;;;;29.88;21.30;;;3.30;99.90;;;;;;5101852;28;20075;-49
2023/03/02 10:17:13;;;;;;;28.75;21.15;;;3.20;99.90;;;;;;5102287;28;20078;-48
2023/03/02 10:19:44;;;;;;;30.75;21.27;;;3.30;99.90;;;;;;5097945;28;20050;-51
2023/03/02 10:22:31;;;;;;;29.15;21.02;;;3.30;99.90;;;;;;5098730;28;20265;-49
2023/03/02 10:25:29;;;;;;;29.05;19.75;;;3.40;99.90;;;;;;5103938;28;20043;-52
2023/03/02 10:28:15;;;;;;;25.50;18.60;;;3.50;99.90;;;;;;5095785;28;20048;-53
2023/03/02 10:30:41;;;;;;;25.55;18.30;;;3.70;99.90;;;;;;5098747;28;20123;-51
2023/03/02 10:33:15;;;;;;;26.00;19.48;;;3.80;99.90;;;;;;5102416;28;20482;-48
2023/03/02 10:35:46;;;;;;;30.52;20.27;;;4.00;99.90;;;;;;5100226;28;20138;-49
2023/03/02 10:38:18;;;;;;;22.60;14.90;;;4.30;99.90;;;;;;5102248;28;20042;-51
2023/03/02 10:40:52;;;;;;;29.13;20.20;;;4.20;99.90;;;;;;5100503;28;20043;-51
2023/03/02 10:43:32;;;;;;;23.88;18.90;;;4.50;99.90;;;;;;5098854;28;20047;-48
2023/03/02 10:46:00;;;;;;;25.50;20.15;;;4.60;99.90;;;;;;5101448;28;20122;-50
2023/03/02 10:48:26;;;;;;;25.63;18.52;;;4.90;99.90;;;;;;5099543;28;20027;-49
2023/03/02 10:50:57;;;;;;;22.92;17.67;;;5.20;99.90;;;;;;5100762;28;20051;-48
2023/03/02 10:53:23;;;;;;;27.20;20.50;;;5.50;99.90;;;;;;5104100;28;20158;-49
2023/03/02 10:55:51;;;;;;;26.80;20.08;;;5.60;99.90;;;;;;5104196;28;20081;-50
2023/03/02 10:58:29;;;;;;;27.95;20.02;;;5.30;99.90;;;;;;5097866;28;20035;-47
2023/03/02 11:01:14;;;;;;;27.38;19.17;;;5.10;99.90;;;;;;5105039;28;20087;-47
2023/03/02 11:03:39;;;;;;;24.92;18.13;;;4.80;99.90;;;;;;5108374;28;20047;-48
2023/03/02 11:06:19;;;;;;;21.85;16.90;;;4.60;99.90;;;;;;5106426;28;20040;-48
2023/03/02 11:08:45;;;;;;;24.63;19.58;;;4.60;99.90;;;;;;5104833;28;20101;-48
2023/03/02 11:11:23;;;;;;;21.73;16.17;;;4.70;99.90;;;;;;5094787;28;20079;-49
2023/03/02 11:13:49;;;;;;;23.08;18.48;;;4.70;99.90;;;;;;5103827;28;20453;-49
2023/03/02 11:16:18;;;;;;;23.42;17.55;;;4.40;99.90;;;;;;5097521;28;20138;-49
2023/03/02 11:19:14;;;;;;;24.98;17.45;;;4.50;99.90;;;;;;5102716;28;20048;-47
2023/03/02 11:21:48;;;;;;;24.80;18.75;;;4.70;99.90;;;;;;5100535;28;20055;-48
2023/03/02 11:24:17;;;;;;;25.50;18.63;;;5.20;99.90;;;;;;5088671;28;20043;-51
2023/03/02 11:27:01;;;;;;;27.60;20.55;;;5.40;99.90;;;;;;5107465;28;20779;-50
2023/03/02 11:29:42;;;;;;;26.90;20.23;;;5.20;99.90;;;;;;5082362;28;20404;-47
2023/03/02 11:32:46;;;;;;;24.63;19.98;;;5.30;99.90;;;;;;5103686;28;20078;-47
2023/03/02 11:35:17;;;;;;;22.52;17.83;;;5.10;99.90;;;;;;5088258;28;20055;-47
2023/03/02 11:37:51;;;;;;;21.98;17.10;;;4.90;99.90;;;;;;5105328;28;20040;-48
2023/03/02 11:40:33;;;;;;;23.00;18.50;;;4.70;99.90;;;;;;5105263;28;20035;-47
2023/03/02 11:43:00;;;;;;;20.85;17.30;;;4.90;99.90;;;;;;5098703;28;20040;-47
2023/03/02 11:45:29;;;;;;;20.73;17.17;;;5.00;99.90;;;;;;5100160;28;20059;-49
2023/03/02 11:48:30;;;;;;;21.75;16.63;;;5.10;99.90;;;;;;5096838;28;20047;-48
2023/03/02 11:51:03;;;;;;;20.70;17.08;;;5.10;99.90;;;;;;5094519;28;20051;-50
2023/03/02 11:53:51;;;;;;;21.17;16.90;;;5.30;99.90;;;;;;5102019;28;20128;-49
2023/03/02 11:56:17;;;;;;;21.58;16.60;;;5.40;99.90;;;;;;5107835;28;20434;-49
2023/03/02 11:58:48;;;;;;;21.92;17.75;;;5.60;99.90;;;;;;5104793;28;20481;-51
2023/03/02 12:01:21;;;;;;;19.98;17.25;;;5.60;99.90;;;;;;5106551;28;20171;-49
2023/03/02 12:03:46;;;;;;;20.80;17.67;;;5.60;99.90;;;;;;5080150;28;20066;-50
2023/03/02 12:06:21;;;;;;;19.83;17.63;;;5.70;99.90;;;;;;5099697;28;20405;-49
2023/03/02 12:08:51;;;;;;;21.13;15.63;;;5.90;99.90;;;;;;5099382;28;20040;-48
2023/03/02 12:11:17;;;;;;;19.55;14.10;;;5.90;99.90;;;;;;5099869;28;20371;-49
2023/03/02 12:13:53;;;;;;;20.20;15.80;;;5.90;99.90;;;;;;5092769;28;20051;-48
2023/03/02 12:16:40;;;;;;;20.33;16.85;;;6.20;99.90;;;;;;5105102;28;20051;-49
2023/03/02 12:19:23;;;;;;;19.92;14.98;;;6.20;99.90;;;;;;5098325;28;20032;-51
2023/03/02 12:21:59;;;;;;;23.38;18.90;;;6.30;99.90;;;;;;5078508;28;20043;-52
2023/03/02 12:24:29;;;;;;;25.20;18.45;;;6.50;99.90;;;;;;5097665;28;20085;-51
2023/03/02 12:27:13;;;;;;;19.45;14.95;;;6.30;99.90;;;;;;5101732;28;20055;-49
2023/03/02 12:29:50;;;;;;;22.52;17.10;;;6.10;99.90;;;;;;5100534;28;20035;-50
2023/03/02 12:32:28;;;;;;;22.73;18.90;;;6.20;99.90;;;;;;5096245;28;20036;-50
2023/03/02 12:35:02;;;;;;;;;;;6.20;99.90;;;;;;5101513;28;20043;-52
2023/03/02 12:37:30;;;;;;;20.65;16.60;;;6.30;99.90;;;;;;5101586;28;19923;-49
2023/03/02 12:40:12;;;;;;;22.05;17.13;;;6.30;99.90;;;;;;5103971;28;20493;-50
2023/03/02 12:42:44;;;;;;;20.83;16.30;;;6.20;99.90;;;;;;5097676;28;20750;-50
2023/03/02 12:45:34;;;;;;;18.15;14.07;;;6.10;99.90;;;;;;5083541;28;20051;-49
2023/03/02 12:48:04;;;;;;;20.95;16.98;;;6.10;99.90;;;;;;5098485;28;20499;-50
2023/03/02 12:50:36;;;;;;;20.70;17.00;;;6.20;99.90;;;;;;5085186;28;20462;-49